sensor_id;sensor_type;location;lat;lon;timestamp;temperature;humidity
29777;DHT22;16677;52.224;7.484;2023-11-21T00:00:14;7.30;99.90
29777;DHT22;16677;52.224;7.484;2023-11-21T00:02:42;7.40;63.00
29777;DHT22;16677;52.224;7.484;2023-11-21T00:05:10;7.50;1.00
29777;DHT22;16677;52.224;7.484;2023-11-21T00:07:38;7.40;1.00
29777;DHT22;16677;52.224;7.484;2023-11-21T00:10:06;7.40;65.60
29777;DHT22;16677;52.224;7.484;2023-11-21T00:12:34;7.70;1.00
29777;DHT22;16677;52.224;7.484;2023-11-21T00:15:01;7.70;99.90
29777;DHT22;16677;52.224;7.484;2023-11-21T00:20:02;7.60;99.90
29777;DHT22;16677;52.224;7.484;2023-11-21T00:22:34;7.60;99.90
29777;DHT22;16677;52.224;7.484;2023-11-21T00:25:02;7.80;99.90
29777;DHT22;16677;52.224;7.484;2023-11-21T00:27:30;7.80;1.00
29777;DHT22;16677;52.224;7.484;2023-11-21T00:32:25;7.90;99.90
29777;DHT22;16677;52.224;7.484;2023-11-21T00:37:20;7.90;1.00
29777;DHT22;16677;52.224;7.484;2023-11-21T00:39:47;8.10;1.00
29777;DHT22;16677;52.224;7.484;2023-11-21T00:42:14;8.10;99.90
29777;DHT22;16677;52.224;7.484;2023-11-21T00:44:41;8.10;1.00
29777;DHT22;16677;52.224;7.484;2023-11-21T00:47:09;8.10;1.00
29777;DHT22;16677;52.224;7.484;2023-11-21T00:49:36;8.30;99.90
29777;DHT22;16677;52.224;7.484;2023-11-21T00:52:03;8.30;99.90
29777;DHT22;16677;52.224;7.484;2023-11-21T00:54:30;8.10;1.00
29777;DHT22;16677;52.224;7.484;2023-11-21T00:57:01;8.20;99.90
29777;DHT22;16677;52.224;7.484;2023-11-21T00:59:28;8.10;95.20
29777;DHT22;16677;52.224;7.484;2023-11-21T01:01:55;8.20;99.90
29777;DHT22;16677;52.224;7.484;2023-11-21T01:04:23;8.30;1.00
29777;DHT22;16677;52.224;7.484;2023-11-21T01:06:50;8.40;1.00
29777;DHT22;16677;52.224;7.484;2023-11-21T01:09:17;8.50;1.00
29777;DHT22;16677;52.224;7.484;2023-11-21T01:11:45;8.70;1.00
29777;DHT22;16677;52.224;7.484;2023-11-21T01:14:13;8.80;1.00
29777;DHT22;16677;52.224;7.484;2023-11-21T01:16:40;8.90;1.00
29777;DHT22;16677;52.224;7.484;2023-11-21T01:19:08;9.00;1.00
29777;DHT22;16677;52.224;7.484;2023-11-21T01:21:36;8.90;1.00
29777;DHT22;16677;52.224;7.484;2023-11-21T01:24:04;8.90;1.00
29777;DHT22;16677;52.224;7.484;2023-11-21T01:26:34;8.80;1.00
29777;DHT22;16677;52.224;7.484;2023-11-21T01:29:01;8.80;1.00
29777;DHT22;16677;52.224;7.484;2023-11-21T01:31:28;8.90;1.00
29777;DHT22;16677;52.224;7.484;2023-11-21T01:33:56;8.90;1.00
29777;DHT22;16677;52.224;7.484;2023-11-21T01:36:30;8.70;1.00
29777;DHT22;16677;52.224;7.484;2023-11-21T01:38:59;8.70;42.30
29777;DHT22;16677;52.224;7.484;2023-11-21T01:41:29;8.70;70.70
29777;DHT22;16677;52.224;7.484;2023-11-21T01:43:56;8.80;86.80
29777;DHT22;16677;52.224;7.484;2023-11-21T01:46:23;8.80;76.80
29777;DHT22;16677;52.224;7.484;2023-11-21T01:48:51;8.80;82.90
29777;DHT22;16677;52.224;7.484;2023-11-21T01:51:19;8.80;91.00
29777;DHT22;16677;52.224;7.484;2023-11-21T01:53:47;8.80;99.90
29777;DHT22;16677;52.224;7.484;2023-11-21T01:56:14;8.90;99.90
29777;DHT22;16677;52.224;7.484;2023-11-21T01:58:42;8.80;95.20
29777;DHT22;16677;52.224;7.484;2023-11-21T02:01:10;8.80;81.20
29777;DHT22;16677;52.224;7.484;2023-11-21T02:03:37;8.90;94.20
29777;DHT22;16677;52.224;7.484;2023-11-21T02:06:05;8.80;72.80
29777;DHT22;16677;52.224;7.484;2023-11-21T02:08:32;8.90;83.90
29777;DHT22;16677;52.224;7.484;2023-11-21T02:10:59;8.90;94.70
29777;DHT22;16677;52.224;7.484;2023-11-21T02:13:27;8.90;83.50
29777;DHT22;16677;52.224;7.484;2023-11-21T02:15:54;8.90;84.30
29777;DHT22;16677;52.224;7.484;2023-11-21T02:18:21;8.90;59.70
29777;DHT22;16677;52.224;7.484;2023-11-21T02:20:49;8.90;64.40
29777;DHT22;16677;52.224;7.484;2023-11-21T02:23:16;8.70;94.20
29777;DHT22;16677;52.224;7.484;2023-11-21T02:25:43;8.70;99.90
29777;DHT22;16677;52.224;7.484;2023-11-21T02:28:10;8.90;99.90
29777;DHT22;16677;52.224;7.484;2023-11-21T02:30:40;8.80;99.90
29777;DHT22;16677;52.224;7.484;2023-11-21T02:33:07;8.90;99.90
29777;DHT22;16677;52.224;7.484;2023-11-21T02:35:34;8.90;99.90
29777;DHT22;16677;52.224;7.484;2023-11-21T02:38:02;8.90;98.70
29777;DHT22;16677;52.224;7.484;2023-11-21T02:40:29;8.80;85.80
29777;DHT22;16677;52.224;7.484;2023-11-21T02:42:57;8.90;99.90
29777;DHT22;16677;52.224;7.484;2023-11-21T02:45:26;8.90;99.90
29777;DHT22;16677;52.224;7.484;2023-11-21T02:47:53;8.90;87.70
29777;DHT22;16677;52.224;7.484;2023-11-21T02:50:22;8.90;99.90
29777;DHT22;16677;52.224;7.484;2023-11-21T02:52:50;9.00;92.40
29777;DHT22;16677;52.224;7.484;2023-11-21T02:55:18;9.00;48.40
29777;DHT22;16677;52.224;7.484;2023-11-21T02:57:45;9.00;80.80
29777;DHT22;16677;52.224;7.484;2023-11-21T03:00:12;9.00;32.20
29777;DHT22;16677;52.224;7.484;2023-11-21T03:02:42;8.90;1.00
29777;DHT22;16677;52.224;7.484;2023-11-21T03:05:11;8.90;21.80
29777;DHT22;16677;52.224;7.484;2023-11-21T03:07:38;8.90;13.60
29777;DHT22;16677;52.224;7.484;2023-11-21T03:10:08;8.90;24.50
29777;DHT22;16677;52.224;7.484;2023-11-21T03:12:40;8.90;48.70
29777;DHT22;16677;52.224;7.484;2023-11-21T03:15:07;9.00;83.40
29777;DHT22;16677;52.224;7.484;2023-11-21T03:17:35;9.10;32.90
29777;DHT22;16677;52.224;7.484;2023-11-21T03:20:04;9.00;4.40
29777;DHT22;16677;52.224;7.484;2023-11-21T03:22:31;9.10;34.40
29777;DHT22;16677;52.224;7.484;2023-11-21T03:25:00;9.00;1.00
29777;DHT22;16677;52.224;7.484;2023-11-21T03:27:28;8.90;9.50
29777;DHT22;16677;52.224;7.484;2023-11-21T03:29:55;8.90;3.40
29777;DHT22;16677;52.224;7.484;2023-11-21T03:32:22;8.90;29.60
29777;DHT22;16677;52.224;7.484;2023-11-21T03:34:55;9.00;35.00
29777;DHT22;16677;52.224;7.484;2023-11-21T03:37:26;8.80;34.50
29777;DHT22;16677;52.224;7.484;2023-11-21T03:39:56;8.90;70.20
29777;DHT22;16677;52.224;7.484;2023-11-21T03:42:24;8.80;82.30
29777;DHT22;16677;52.224;7.484;2023-11-21T03:44:54;8.90;95.00
29777;DHT22;16677;52.224;7.484;2023-11-21T03:47:21;8.80;85.10
29777;DHT22;16677;52.224;7.484;2023-11-21T03:49:48;8.70;99.90
29777;DHT22;16677;52.224;7.484;2023-11-21T03:52:17;8.60;99.90
29777;DHT22;16677;52.224;7.484;2023-11-21T03:54:44;8.70;99.90
29777;DHT22;16677;52.224;7.484;2023-11-21T03:57:12;8.60;99.90
29777;DHT22;16677;52.224;7.484;2023-11-21T03:59:43;8.70;99.90
29777;DHT22;16677;52.224;7.484;2023-11-21T04:02:10;8.60;99.90
29777;DHT22;16677;52.224;7.484;2023-11-21T04:04:37;8.80;99.90
29777;DHT22;16677;52.224;7.484;2023-11-21T04:07:04;8.90;99.90
29777;DHT22;16677;52.224;7.484;2023-11-21T04:09:32;8.90;99.90
29777;DHT22;16677;52.224;7.484;2023-11-21T04:11:59;9.10;99.90
29777;DHT22;16677;52.224;7.484;2023-11-21T04:14:26;9.10;99.90
29777;DHT22;16677;52.224;7.484;2023-11-21T04:16:53;9.10;99.90
29777;DHT22;16677;52.224;7.484;2023-11-21T04:19:20;9.20;99.90
29777;DHT22;16677;52.224;7.484;2023-11-21T04:21:48;9.20;46.60
29777;DHT22;16677;52.224;7.484;2023-11-21T04:24:15;9.30;15.60
29777;DHT22;16677;52.224;7.484;2023-11-21T04:26:44;9.30;1.00
29777;DHT22;16677;52.224;7.484;2023-11-21T04:29:11;9.40;1.00
29777;DHT22;16677;52.224;7.484;2023-11-21T04:31:38;9.30;1.00
29777;DHT22;16677;52.224;7.484;2023-11-21T04:34:05;9.30;1.00
29777;DHT22;16677;52.224;7.484;2023-11-21T04:36:32;9.30;1.00
29777;DHT22;16677;52.224;7.484;2023-11-21T04:38:59;9.40;1.00
29777;DHT22;16677;52.224;7.484;2023-11-21T04:41:26;9.30;1.00
29777;DHT22;16677;52.224;7.484;2023-11-21T04:43:53;9.30;1.00
29777;DHT22;16677;52.224;7.484;2023-11-21T04:46:21;9.30;1.00
29777;DHT22;16677;52.224;7.484;2023-11-21T04:48:48;9.30;1.00
29777;DHT22;16677;52.224;7.484;2023-11-21T04:51:16;9.30;1.00
29777;DHT22;16677;52.224;7.484;2023-11-21T04:53:43;9.30;1.00
29777;DHT22;16677;52.224;7.484;2023-11-21T04:56:10;9.30;1.00
29777;DHT22;16677;52.224;7.484;2023-11-21T04:58:38;9.30;1.00
29777;DHT22;16677;52.224;7.484;2023-11-21T05:01:07;9.50;1.00
29777;DHT22;16677;52.224;7.484;2023-11-21T05:03:35;9.40;1.00
29777;DHT22;16677;52.224;7.484;2023-11-21T05:06:02;9.40;1.00
29777;DHT22;16677;52.224;7.484;2023-11-21T05:08:32;9.50;1.00
29777;DHT22;16677;52.224;7.484;2023-11-21T05:10:59;9.50;1.00
29777;DHT22;16677;52.224;7.484;2023-11-21T05:13:26;9.40;1.00
29777;DHT22;16677;52.224;7.484;2023-11-21T05:15:55;9.40;1.00
29777;DHT22;16677;52.224;7.484;2023-11-21T05:18:25;9.10;1.00
29777;DHT22;16677;52.224;7.484;2023-11-21T05:20:56;9.10;1.00
29777;DHT22;16677;52.224;7.484;2023-11-21T05:23:24;9.20;1.00
29777;DHT22;16677;52.224;7.484;2023-11-21T05:25:52;9.20;1.00
29777;DHT22;16677;52.224;7.484;2023-11-21T05:28:19;9.10;1.00
29777;DHT22;16677;52.224;7.484;2023-11-21T05:30:47;9.20;1.00
29777;DHT22;16677;52.224;7.484;2023-11-21T05:33:14;9.20;1.00
29777;DHT22;16677;52.224;7.484;2023-11-21T05:35:41;9.10;1.00
29777;DHT22;16677;52.224;7.484;2023-11-21T05:38:08;9.00;1.00
29777;DHT22;16677;52.224;7.484;2023-11-21T05:40:35;8.90;1.00
29777;DHT22;16677;52.224;7.484;2023-11-21T05:43:04;9.10;1.00
29777;DHT22;16677;52.224;7.484;2023-11-21T05:45:32;9.00;1.00
29777;DHT22;16677;52.224;7.484;2023-11-21T05:47:59;8.90;24.40
29777;DHT22;16677;52.224;7.484;2023-11-21T05:50:26;8.90;63.70
29777;DHT22;16677;52.224;7.484;2023-11-21T05:52:53;8.90;99.90
29777;DHT22;16677;52.224;7.484;2023-11-21T05:55:23;8.90;99.90
29777;DHT22;16677;52.224;7.484;2023-11-21T05:57:52;9.00;99.90
29777;DHT22;16677;52.224;7.484;2023-11-21T06:00:20;9.00;99.90
29777;DHT22;16677;52.224;7.484;2023-11-21T06:02:49;9.10;99.90
29777;DHT22;16677;52.224;7.484;2023-11-21T06:05:19;9.00;95.90
29777;DHT22;16677;52.224;7.484;2023-11-21T06:07:47;9.00;99.90
29777;DHT22;16677;52.224;7.484;2023-11-21T06:10:14;9.00;99.90
29777;DHT22;16677;52.224;7.484;2023-11-21T06:12:41;9.00;99.90
29777;DHT22;16677;52.224;7.484;2023-11-21T06:15:10;9.00;99.90
29777;DHT22;16677;52.224;7.484;2023-11-21T06:17:42;9.00;99.90
29777;DHT22;16677;52.224;7.484;2023-11-21T06:20:10;9.10;99.90
29777;DHT22;16677;52.224;7.484;2023-11-21T06:22:42;9.00;99.90
29777;DHT22;16677;52.224;7.484;2023-11-21T06:25:11;9.10;99.90
29777;DHT22;16677;52.224;7.484;2023-11-21T06:27:44;9.20;99.90
29777;DHT22;16677;52.224;7.484;2023-11-21T06:30:12;9.00;99.90
29777;DHT22;16677;52.224;7.484;2023-11-21T06:32:41;8.90;99.90
29777;DHT22;16677;52.224;7.484;2023-11-21T06:35:08;9.00;99.90
29777;DHT22;16677;52.224;7.484;2023-11-21T06:37:37;9.00;99.90
29777;DHT22;16677;52.224;7.484;2023-11-21T06:40:05;8.90;99.90
29777;DHT22;16677;52.224;7.484;2023-11-21T06:42:33;8.90;99.90
29777;DHT22;16677;52.224;7.484;2023-11-21T06:45:05;8.90;99.90
29777;DHT22;16677;52.224;7.484;2023-11-21T06:47:32;8.90;99.90
29777;DHT22;16677;52.224;7.484;2023-11-21T06:49:59;9.00;99.90
29777;DHT22;16677;52.224;7.484;2023-11-21T06:52:27;9.10;99.90
29777;DHT22;16677;52.224;7.484;2023-11-21T06:54:55;9.00;99.90
29777;DHT22;16677;52.224;7.484;2023-11-21T06:57:25;9.00;99.90
29777;DHT22;16677;52.224;7.484;2023-11-21T06:59:52;9.00;99.90
29777;DHT22;16677;52.224;7.484;2023-11-21T07:02:19;9.00;99.90
29777;DHT22;16677;52.224;7.484;2023-11-21T07:04:46;9.00;99.90
29777;DHT22;16677;52.224;7.484;2023-11-21T07:07:13;9.10;99.90
29777;DHT22;16677;52.224;7.484;2023-11-21T07:09:40;9.30;99.90
29777;DHT22;16677;52.224;7.484;2023-11-21T07:12:07;9.40;99.90
29777;DHT22;16677;52.224;7.484;2023-11-21T07:14:35;9.60;99.90
29777;DHT22;16677;52.224;7.484;2023-11-21T07:17:02;9.40;4.70
29777;DHT22;16677;52.224;7.484;2023-11-21T07:19:29;9.40;9.00
29777;DHT22;16677;52.224;7.484;2023-11-21T07:21:56;9.40;36.70
29777;DHT22;16677;52.224;7.484;2023-11-21T07:24:23;9.30;38.50
29777;DHT22;16677;52.224;7.484;2023-11-21T07:26:53;9.30;57.50
29777;DHT22;16677;52.224;7.484;2023-11-21T07:29:24;9.20;47.60
29777;DHT22;16677;52.224;7.484;2023-11-21T07:31:56;9.10;86.70
29777;DHT22;16677;52.224;7.484;2023-11-21T07:34:23;9.20;99.90
29777;DHT22;16677;52.224;7.484;2023-11-21T07:36:51;9.10;90.40
29777;DHT22;16677;52.224;7.484;2023-11-21T07:39:18;9.30;99.90
29777;DHT22;16677;52.224;7.484;2023-11-21T07:41:45;9.40;1.00
29777;DHT22;16677;52.224;7.484;2023-11-21T07:44:19;9.30;8.30
29777;DHT22;16677;52.224;7.484;2023-11-21T07:46:48;9.20;47.30
29777;DHT22;16677;52.224;7.484;2023-11-21T07:49:17;9.10;66.20
29777;DHT22;16677;52.224;7.484;2023-11-21T07:51:47;9.20;99.90
29777;DHT22;16677;52.224;7.484;2023-11-21T07:54:14;9.20;90.80
29777;DHT22;16677;52.224;7.484;2023-11-21T07:56:43;9.30;95.50
29777;DHT22;16677;52.224;7.484;2023-11-21T07:59:10;9.40;84.50
29777;DHT22;16677;52.224;7.484;2023-11-21T08:01:37;9.60;11.20
29777;DHT22;16677;52.224;7.484;2023-11-21T08:04:04;9.50;1.00
29777;DHT22;16677;52.224;7.484;2023-11-21T08:06:33;9.50;1.00
29777;DHT22;16677;52.224;7.484;2023-11-21T08:09:00;9.40;1.00
29777;DHT22;16677;52.224;7.484;2023-11-21T08:11:27;9.30;1.00
29777;DHT22;16677;52.224;7.484;2023-11-21T08:13:57;9.20;1.00
29777;DHT22;16677;52.224;7.484;2023-11-21T08:16:26;9.10;1.00
29777;DHT22;16677;52.224;7.484;2023-11-21T08:18:54;9.10;28.30
29777;DHT22;16677;52.224;7.484;2023-11-21T08:21:22;9.00;59.30
29777;DHT22;16677;52.224;7.484;2023-11-21T08:23:51;9.10;91.60
29777;DHT22;16677;52.224;7.484;2023-11-21T08:26:22;9.10;99.90
29777;DHT22;16677;52.224;7.484;2023-11-21T08:28:49;9.10;99.90
29777;DHT22;16677;52.224;7.484;2023-11-21T08:31:24;9.10;99.90
29777;DHT22;16677;52.224;7.484;2023-11-21T08:33:52;9.10;99.90
29777;DHT22;16677;52.224;7.484;2023-11-21T08:36:22;9.10;99.90
29777;DHT22;16677;52.224;7.484;2023-11-21T08:38:52;9.10;99.90
29777;DHT22;16677;52.224;7.484;2023-11-21T08:41:19;9.10;99.90
29777;DHT22;16677;52.224;7.484;2023-11-21T08:43:50;9.10;99.90
29777;DHT22;16677;52.224;7.484;2023-11-21T08:46:18;9.20;99.90
29777;DHT22;16677;52.224;7.484;2023-11-21T08:48:46;9.20;99.90
29777;DHT22;16677;52.224;7.484;2023-11-21T08:51:13;9.30;99.90
29777;DHT22;16677;52.224;7.484;2023-11-21T08:53:43;9.30;99.90
29777;DHT22;16677;52.224;7.484;2023-11-21T08:56:14;9.40;99.90
29777;DHT22;16677;52.224;7.484;2023-11-21T08:58:41;9.30;99.90
29777;DHT22;16677;52.224;7.484;2023-11-21T09:01:08;9.40;99.90
29777;DHT22;16677;52.224;7.484;2023-11-21T09:03:49;9.30;99.90
29777;DHT22;16677;52.224;7.484;2023-11-21T09:06:17;9.30;99.90
29777;DHT22;16677;52.224;7.484;2023-11-21T09:08:44;9.40;99.90
29777;DHT22;16677;52.224;7.484;2023-11-21T09:11:11;9.40;99.90
29777;DHT22;16677;52.224;7.484;2023-11-21T09:13:38;9.20;99.90
29777;DHT22;16677;52.224;7.484;2023-11-21T09:16:05;9.30;99.90
29777;DHT22;16677;52.224;7.484;2023-11-21T09:18:32;9.30;99.90
29777;DHT22;16677;52.224;7.484;2023-11-21T09:20:59;9.40;99.90
29777;DHT22;16677;52.224;7.484;2023-11-21T09:23:26;9.50;99.90
29777;DHT22;16677;52.224;7.484;2023-11-21T09:25:53;9.40;99.90
29777;DHT22;16677;52.224;7.484;2023-11-21T09:28:24;9.50;99.90
29777;DHT22;16677;52.224;7.484;2023-11-21T09:30:51;9.40;99.90
29777;DHT22;16677;52.224;7.484;2023-11-21T09:33:18;9.50;99.90
29777;DHT22;16677;52.224;7.484;2023-11-21T09:35:45;9.40;99.90
29777;DHT22;16677;52.224;7.484;2023-11-21T09:38:12;9.40;99.90
29777;DHT22;16677;52.224;7.484;2023-11-21T09:40:39;9.30;99.90
29777;DHT22;16677;52.224;7.484;2023-11-21T09:43:15;9.30;99.90
29777;DHT22;16677;52.224;7.484;2023-11-21T09:45:46;9.30;99.90
29777;DHT22;16677;52.224;7.484;2023-11-21T09:48:14;9.40;99.90
29777;DHT22;16677;52.224;7.484;2023-11-21T09:50:43;9.60;99.90
29777;DHT22;16677;52.224;7.484;2023-11-21T09:53:18;9.70;99.90
29777;DHT22;16677;52.224;7.484;2023-11-21T09:55:50;9.60;99.90
29777;DHT22;16677;52.224;7.484;2023-11-21T09:58:19;9.70;99.90
29777;DHT22;16677;52.224;7.484;2023-11-21T10:00:48;9.60;99.90
29777;DHT22;16677;52.224;7.484;2023-11-21T10:03:15;9.60;99.90
29777;DHT22;16677;52.224;7.484;2023-11-21T10:05:44;9.70;99.90
29777;DHT22;16677;52.224;7.484;2023-11-21T10:08:14;9.80;99.90
29777;DHT22;16677;52.224;7.484;2023-11-21T10:10:46;9.70;99.90
29777;DHT22;16677;52.224;7.484;2023-11-21T10:13:17;9.60;99.90
29777;DHT22;16677;52.224;7.484;2023-11-21T10:15:49;9.50;99.90
29777;DHT22;16677;52.224;7.484;2023-11-21T10:18:17;9.60;99.90
29777;DHT22;16677;52.224;7.484;2023-11-21T10:20:45;9.70;99.90
29777;DHT22;16677;52.224;7.484;2023-11-21T10:23:21;9.60;99.90
29777;DHT22;16677;52.224;7.484;2023-11-21T10:25:53;9.60;99.90
29777;DHT22;16677;52.224;7.484;2023-11-21T10:28:28;9.60;99.90
29777;DHT22;16677;52.224;7.484;2023-11-21T10:30:56;9.70;99.90
29777;DHT22;16677;52.224;7.484;2023-11-21T10:33:29;9.60;99.90
29777;DHT22;16677;52.224;7.484;2023-11-21T10:35:56;9.50;99.90
29777;DHT22;16677;52.224;7.484;2023-11-21T10:38:24;9.60;99.90
29777;DHT22;16677;52.224;7.484;2023-11-21T10:40:52;9.50;99.90
29777;DHT22;16677;52.224;7.484;2023-11-21T10:43:25;9.40;99.90
29777;DHT22;16677;52.224;7.484;2023-11-21T10:45:52;9.50;99.90
29777;DHT22;16677;52.224;7.484;2023-11-21T10:48:20;9.40;97.70
29777;DHT22;16677;52.224;7.484;2023-11-21T10:50:48;9.50;99.90
29777;DHT22;16677;52.224;7.484;2023-11-21T10:53:15;9.40;56.50
29777;DHT22;16677;52.224;7.484;2023-11-21T10:55:42;9.50;47.20
29777;DHT22;16677;52.224;7.484;2023-11-21T10:58:13;9.50;1.00
29777;DHT22;16677;52.224;7.484;2023-11-21T11:00:41;9.60;1.00
29777;DHT22;16677;52.224;7.484;2023-11-21T11:03:09;9.50;1.00
29777;DHT22;16677;52.224;7.484;2023-11-21T11:05:46;9.50;1.00
29777;DHT22;16677;52.224;7.484;2023-11-21T11:08:21;9.50;1.00
29777;DHT22;16677;52.224;7.484;2023-11-21T11:10:54;9.40;1.00
29777;DHT22;16677;52.224;7.484;2023-11-21T11:13:22;9.40;99.90
29777;DHT22;16677;52.224;7.484;2023-11-21T11:15:53;9.40;99.90
29777;DHT22;16677;52.224;7.484;2023-11-21T11:18:26;9.30;1.00
29777;DHT22;16677;52.224;7.484;2023-11-21T11:21:01;9.30;62.40
29777;DHT22;16677;52.224;7.484;2023-11-21T11:26:28;9.50;2.30
29777;DHT22;16677;52.224;7.484;2023-11-21T11:29:28;9.30;1.00
29777;DHT22;16677;52.224;7.484;2023-11-21T11:34:57;9.60;1.00
29777;DHT22;16677;52.224;7.484;2023-11-21T11:37:29;9.70;1.00
29777;DHT22;16677;52.224;7.484;2023-11-21T11:39:56;9.60;99.90
29777;DHT22;16677;52.224;7.484;2023-11-21T11:42:23;9.30;99.90
29777;DHT22;16677;52.224;7.484;2023-11-21T11:44:51;9.40;1.00
29777;DHT22;16677;52.224;7.484;2023-11-21T11:47:29;9.40;1.00
29777;DHT22;16677;52.224;7.484;2023-11-21T11:50:12;9.40;1.00
29777;DHT22;16677;52.224;7.484;2023-11-21T11:55:17;9.40;99.90
29777;DHT22;16677;52.224;7.484;2023-11-21T11:57:49;9.30;99.90
29777;DHT22;16677;52.224;7.484;2023-11-21T12:03:00;8.90;1.00
29777;DHT22;16677;52.224;7.484;2023-11-21T12:05:32;9.00;1.00
29777;DHT22;16677;52.224;7.484;2023-11-21T12:08:02;8.90;70.90
29777;DHT22;16677;52.224;7.484;2023-11-21T12:10:31;9.00;99.90
29777;DHT22;16677;52.224;7.484;2023-11-21T12:13:20;9.00;96.80
29777;DHT22;16677;52.224;7.484;2023-11-21T12:15:46;9.10;99.90
29777;DHT22;16677;52.224;7.484;2023-11-21T12:18:13;9.10;99.90
29777;DHT22;16677;52.224;7.484;2023-11-21T12:20:40;9.00;1.00
29777;DHT22;16677;52.224;7.484;2023-11-21T12:23:09;8.90;99.90
29777;DHT22;16677;52.224;7.484;2023-11-21T12:25:38;8.80;99.90
29777;DHT22;16677;52.224;7.484;2023-11-21T12:28:09;8.90;99.90
29777;DHT22;16677;52.224;7.484;2023-11-21T12:30:36;8.90;99.90
29777;DHT22;16677;52.224;7.484;2023-11-21T12:33:05;8.70;99.90
29777;DHT22;16677;52.224;7.484;2023-11-21T12:35:36;8.90;99.90
29777;DHT22;16677;52.224;7.484;2023-11-21T12:38:05;8.70;1.00
29777;DHT22;16677;52.224;7.484;2023-11-21T12:40:32;8.80;1.00
29777;DHT22;16677;52.224;7.484;2023-11-21T12:43:00;8.80;38.50
29777;DHT22;16677;52.224;7.484;2023-11-21T12:45:29;8.70;99.90
29777;DHT22;16677;52.224;7.484;2023-11-21T12:48:00;8.70;3.60
29777;DHT22;16677;52.224;7.484;2023-11-21T12:50:31;8.70;1.00
29777;DHT22;16677;52.224;7.484;2023-11-21T12:53:03;8.80;99.90
29777;DHT22;16677;52.224;7.484;2023-11-21T12:55:33;8.80;26.40
29777;DHT22;16677;52.224;7.484;2023-11-21T12:58:06;8.60;1.00
29777;DHT22;16677;52.224;7.484;2023-11-21T13:00:47;8.70;90.30
29777;DHT22;16677;52.224;7.484;2023-11-21T13:03:17;8.90;1.00
29777;DHT22;16677;52.224;7.484;2023-11-21T13:05:47;8.90;11.40
29777;DHT22;16677;52.224;7.484;2023-11-21T13:08:22;9.00;99.90
29777;DHT22;16677;52.224;7.484;2023-11-21T13:10:55;9.10;99.90
29777;DHT22;16677;52.224;7.484;2023-11-21T13:13:25;9.00;1.00
29777;DHT22;16677;52.224;7.484;2023-11-21T13:15:59;8.80;1.00
29777;DHT22;16677;52.224;7.484;2023-11-21T13:18:33;8.90;99.90
29777;DHT22;16677;52.224;7.484;2023-11-21T13:21:05;8.70;1.00
29777;DHT22;16677;52.224;7.484;2023-11-21T13:23:40;8.80;99.90
29777;DHT22;16677;52.224;7.484;2023-11-21T13:26:08;8.80;1.00
29777;DHT22;16677;52.224;7.484;2023-11-21T13:28:36;8.80;99.90
29777;DHT22;16677;52.224;7.484;2023-11-21T13:31:05;8.80;99.90
29777;DHT22;16677;52.224;7.484;2023-11-21T13:33:50;8.70;99.90
29777;DHT22;16677;52.224;7.484;2023-11-21T13:36:23;8.90;1.00
29777;DHT22;16677;52.224;7.484;2023-11-21T13:38:51;8.80;99.90
29777;DHT22;16677;52.224;7.484;2023-11-21T13:41:21;8.70;46.90
29777;DHT22;16677;52.224;7.484;2023-11-21T13:43:57;8.70;99.90
29777;DHT22;16677;52.224;7.484;2023-11-21T13:46:45;8.60;1.00
29777;DHT22;16677;52.224;7.484;2023-11-21T13:49:13;8.80;1.00
29777;DHT22;16677;52.224;7.484;2023-11-21T13:51:41;9.00;99.90
29777;DHT22;16677;52.224;7.484;2023-11-21T13:54:11;8.90;1.00
29777;DHT22;16677;52.224;7.484;2023-11-21T13:56:39;8.90;99.90
29777;DHT22;16677;52.224;7.484;2023-11-21T13:59:08;8.90;99.90
29777;DHT22;16677;52.224;7.484;2023-11-21T14:02:01;8.80;1.00
29777;DHT22;16677;52.224;7.484;2023-11-21T14:04:44;8.80;1.00
29777;DHT22;16677;52.224;7.484;2023-11-21T14:07:20;8.60;17.30
29777;DHT22;16677;52.224;7.484;2023-11-21T14:10:08;8.70;99.90
29777;DHT22;16677;52.224;7.484;2023-11-21T14:12:40;8.70;99.90
29777;DHT22;16677;52.224;7.484;2023-11-21T14:15:09;8.80;1.00
29777;DHT22;16677;52.224;7.484;2023-11-21T14:17:38;8.80;99.90
29777;DHT22;16677;52.224;7.484;2023-11-21T14:20:08;8.50;99.90
29777;DHT22;16677;52.224;7.484;2023-11-21T14:22:43;8.50;99.90
29777;DHT22;16677;52.224;7.484;2023-11-21T14:25:10;8.40;97.70
29777;DHT22;16677;52.224;7.484;2023-11-21T14:27:39;8.40;99.90
29777;DHT22;16677;52.224;7.484;2023-11-21T14:30:06;8.50;99.90
29777;DHT22;16677;52.224;7.484;2023-11-21T14:32:33;8.30;1.00
29777;DHT22;16677;52.224;7.484;2023-11-21T14:35:01;8.30;99.90
29777;DHT22;16677;52.224;7.484;2023-11-21T14:37:30;8.30;1.00
29777;DHT22;16677;52.224;7.484;2023-11-21T14:39:57;8.30;99.90
29777;DHT22;16677;52.224;7.484;2023-11-21T14:42:25;8.30;99.90
29777;DHT22;16677;52.224;7.484;2023-11-21T14:44:56;8.30;1.00
29777;DHT22;16677;52.224;7.484;2023-11-21T14:47:27;8.40;99.90
29777;DHT22;16677;52.224;7.484;2023-11-21T14:49:54;8.20;1.00
29777;DHT22;16677;52.224;7.484;2023-11-21T14:52:23;8.30;1.00
29777;DHT22;16677;52.224;7.484;2023-11-21T14:55:02;8.20;1.00
29777;DHT22;16677;52.224;7.484;2023-11-21T14:57:51;8.10;1.00
29777;DHT22;16677;52.224;7.484;2023-11-21T15:00:20;8.20;1.00
29777;DHT22;16677;52.224;7.484;2023-11-21T15:03:03;8.30;1.00
29777;DHT22;16677;52.224;7.484;2023-11-21T15:05:31;8.20;1.00
29777;DHT22;16677;52.224;7.484;2023-11-21T15:08:01;8.30;1.00
29777;DHT22;16677;52.224;7.484;2023-11-21T15:11:00;8.20;13.30
29777;DHT22;16677;52.224;7.484;2023-11-21T15:13:29;8.10;99.90
29777;DHT22;16677;52.224;7.484;2023-11-21T15:15:57;8.20;99.90
29777;DHT22;16677;52.224;7.484;2023-11-21T15:18:30;8.20;99.90
29777;DHT22;16677;52.224;7.484;2023-11-21T15:20:57;8.00;1.00
29777;DHT22;16677;52.224;7.484;2023-11-21T15:23:24;8.10;1.00
29777;DHT22;16677;52.224;7.484;2023-11-21T15:25:51;8.20;99.90
29777;DHT22;16677;52.224;7.484;2023-11-21T15:28:19;8.00;1.00
29777;DHT22;16677;52.224;7.484;2023-11-21T15:30:47;8.10;99.90
29777;DHT22;16677;52.224;7.484;2023-11-21T15:33:18;8.10;99.90
29777;DHT22;16677;52.224;7.484;2023-11-21T15:35:45;8.20;99.90
29777;DHT22;16677;52.224;7.484;2023-11-21T15:38:12;8.10;71.30
29777;DHT22;16677;52.224;7.484;2023-11-21T15:40:40;7.90;1.00
29777;DHT22;16677;52.224;7.484;2023-11-21T15:43:10;8.00;99.90
29777;DHT22;16677;52.224;7.484;2023-11-21T15:45:39;7.90;62.80
29777;DHT22;16677;52.224;7.484;2023-11-21T15:48:06;7.90;99.90
29777;DHT22;16677;52.224;7.484;2023-11-21T15:50:33;7.90;99.90
29777;DHT22;16677;52.224;7.484;2023-11-21T15:53:01;7.90;99.90
29777;DHT22;16677;52.224;7.484;2023-11-21T15:55:30;7.90;50.10
29777;DHT22;16677;52.224;7.484;2023-11-21T15:57:57;8.00;1.00
29777;DHT22;16677;52.224;7.484;2023-11-21T16:00:25;8.00;1.00
29777;DHT22;16677;52.224;7.484;2023-11-21T16:02:52;7.90;1.00
29777;DHT22;16677;52.224;7.484;2023-11-21T16:05:22;7.80;66.40
29777;DHT22;16677;52.224;7.484;2023-11-21T16:07:53;7.80;99.90
29777;DHT22;16677;52.224;7.484;2023-11-21T16:10:21;7.90;99.90
29777;DHT22;16677;52.224;7.484;2023-11-21T16:12:48;7.70;99.90
29777;DHT22;16677;52.224;7.484;2023-11-21T16:15:16;7.80;99.90
29777;DHT22;16677;52.224;7.484;2023-11-21T16:17:45;7.70;1.00
29777;DHT22;16677;52.224;7.484;2023-11-21T16:20:13;7.80;1.00
29777;DHT22;16677;52.224;7.484;2023-11-21T16:22:42;7.80;1.00